sensor_id;sensor_type;location;lat;lon;timestamp;P1;durP1;ratioP1;P2;durP2;ratioP2
11313;SDS011;5712;48.858;9.206;2023-07-29T00:01:20;8.80;;;4.90;;
11313;SDS011;5712;48.858;9.206;2023-07-29T00:03:47;7.70;;;5.17;;
11313;SDS011;5712;48.858;9.206;2023-07-29T00:06:13;7.70;;;5.60;;
11313;SDS011;5712;48.858;9.206;2023-07-29T00:08:39;6.27;;;4.97;;
11313;SDS011;5712;48.858;9.206;2023-07-29T00:11:06;7.83;;;5.47;;
11313;SDS011;5712;48.858;9.206;2023-07-29T00:13:34;6.30;;;5.07;;
11313;SDS011;5712;48.858;9.206;2023-07-29T00:16:00;6.40;;;5.33;;
11313;SDS011;5712;48.858;9.206;2023-07-29T00:18:27;6.67;;;5.20;;
11313;SDS011;5712;48.858;9.206;2023-07-29T00:20:53;7.47;;;5.27;;
11313;SDS011;5712;48.858;9.206;2023-07-29T00:23:20;7.13;;;4.93;;
11313;SDS011;5712;48.858;9.206;2023-07-29T00:25:47;6.77;;;4.87;;
11313;SDS011;5712;48.858;9.206;2023-07-29T00:28:13;9.20;;;5.20;;
11313;SDS011;5712;48.858;9.206;2023-07-29T00:30:41;7.40;;;5.30;;
11313;SDS011;5712;48.858;9.206;2023-07-29T00:33:11;6.60;;;5.77;;
11313;SDS011;5712;48.858;9.206;2023-07-29T00:35:37;7.17;;;5.20;;
11313;SDS011;5712;48.858;9.206;2023-07-29T00:38:04;6.43;;;5.30;;
11313;SDS011;5712;48.858;9.206;2023-07-29T00:40:30;6.90;;;5.33;;
11313;SDS011;5712;48.858;9.206;2023-07-29T00:43:01;7.90;;;5.90;;
11313;SDS011;5712;48.858;9.206;2023-07-29T00:45:27;7.93;;;5.47;;
11313;SDS011;5712;48.858;9.206;2023-07-29T00:47:57;7.13;;;4.83;;
11313;SDS011;5712;48.858;9.206;2023-07-29T00:50:24;6.90;;;5.10;;
11313;SDS011;5712;48.858;9.206;2023-07-29T00:52:52;5.73;;;4.20;;
11313;SDS011;5712;48.858;9.206;2023-07-29T00:55:19;6.60;;;4.83;;
11313;SDS011;5712;48.858;9.206;2023-07-29T00:57:46;7.87;;;5.03;;
11313;SDS011;5712;48.858;9.206;2023-07-29T01:00:16;4.93;;;4.13;;
11313;SDS011;5712;48.858;9.206;2023-07-29T01:02:43;6.27;;;4.60;;
11313;SDS011;5712;48.858;9.206;2023-07-29T01:05:12;7.57;;;4.97;;
11313;SDS011;5712;48.858;9.206;2023-07-29T01:07:44;6.97;;;4.97;;
11313;SDS011;5712;48.858;9.206;2023-07-29T01:10:18;5.63;;;4.70;;
11313;SDS011;5712;48.858;9.206;2023-07-29T01:12:51;6.17;;;4.50;;
11313;SDS011;5712;48.858;9.206;2023-07-29T01:15:25;6.53;;;4.73;;
11313;SDS011;5712;48.858;9.206;2023-07-29T01:17:59;7.37;;;4.90;;
11313;SDS011;5712;48.858;9.206;2023-07-29T01:20:32;4.80;;;4.30;;
11313;SDS011;5712;48.858;9.206;2023-07-29T01:23:00;6.23;;;4.83;;
11313;SDS011;5712;48.858;9.206;2023-07-29T01:25:28;4.80;;;4.00;;
11313;SDS011;5712;48.858;9.206;2023-07-29T01:27:54;6.43;;;4.60;;
11313;SDS011;5712;48.858;9.206;2023-07-29T01:30:22;5.87;;;4.60;;
11313;SDS011;5712;48.858;9.206;2023-07-29T01:32:56;5.90;;;4.63;;
11313;SDS011;5712;48.858;9.206;2023-07-29T01:35:31;7.13;;;4.97;;
11313;SDS011;5712;48.858;9.206;2023-07-29T01:38:01;5.60;;;4.53;;
11313;SDS011;5712;48.858;9.206;2023-07-29T01:40:32;5.37;;;4.10;;
11313;SDS011;5712;48.858;9.206;2023-07-29T01:43:00;4.87;;;3.83;;
11313;SDS011;5712;48.858;9.206;2023-07-29T01:45:26;4.67;;;4.10;;
11313;SDS011;5712;48.858;9.206;2023-07-29T01:47:53;6.63;;;3.57;;
11313;SDS011;5712;48.858;9.206;2023-07-29T01:50:19;4.23;;;3.60;;
11313;SDS011;5712;48.858;9.206;2023-07-29T01:52:46;4.37;;;3.67;;
11313;SDS011;5712;48.858;9.206;2023-07-29T01:55:12;5.90;;;3.40;;
11313;SDS011;5712;48.858;9.206;2023-07-29T01:57:40;5.83;;;3.73;;
11313;SDS011;5712;48.858;9.206;2023-07-29T02:00:07;4.50;;;3.70;;
11313;SDS011;5712;48.858;9.206;2023-07-29T02:02:34;6.27;;;3.67;;
11313;SDS011;5712;48.858;9.206;2023-07-29T02:05:01;4.53;;;3.83;;
11313;SDS011;5712;48.858;9.206;2023-07-29T02:07:27;4.30;;;3.90;;
11313;SDS011;5712;48.858;9.206;2023-07-29T02:09:54;5.33;;;4.47;;
11313;SDS011;5712;48.858;9.206;2023-07-29T02:12:20;4.80;;;4.27;;
11313;SDS011;5712;48.858;9.206;2023-07-29T02:14:48;5.27;;;3.50;;
11313;SDS011;5712;48.858;9.206;2023-07-29T02:17:15;6.17;;;4.20;;
11313;SDS011;5712;48.858;9.206;2023-07-29T02:19:41;4.10;;;3.70;;
11313;SDS011;5712;48.858;9.206;2023-07-29T02:22:09;5.03;;;4.23;;
11313;SDS011;5712;48.858;9.206;2023-07-29T02:24:36;4.27;;;3.87;;
11313;SDS011;5712;48.858;9.206;2023-07-29T02:27:03;4.33;;;3.37;;
11313;SDS011;5712;48.858;9.206;2023-07-29T02:29:30;4.67;;;3.73;;
11313;SDS011;5712;48.858;9.206;2023-07-29T02:31:59;4.30;;;3.40;;
11313;SDS011;5712;48.858;9.206;2023-07-29T02:34:25;4.53;;;3.40;;
11313;SDS011;5712;48.858;9.206;2023-07-29T02:36:52;4.50;;;3.90;;
11313;SDS011;5712;48.858;9.206;2023-07-29T02:39:18;5.53;;;3.50;;
11313;SDS011;5712;48.858;9.206;2023-07-29T02:41:45;3.90;;;3.50;;
11313;SDS011;5712;48.858;9.206;2023-07-29T02:44:11;5.23;;;4.00;;
11313;SDS011;5712;48.858;9.206;2023-07-29T02:46:38;4.60;;;3.80;;
11313;SDS011;5712;48.858;9.206;2023-07-29T02:49:06;4.87;;;3.53;;
11313;SDS011;5712;48.858;9.206;2023-07-29T02:51:32;6.07;;;3.67;;
11313;SDS011;5712;48.858;9.206;2023-07-29T02:53:59;5.50;;;4.07;;
11313;SDS011;5712;48.858;9.206;2023-07-29T02:56:25;5.53;;;3.50;;
11313;SDS011;5712;48.858;9.206;2023-07-29T02:58:52;5.23;;;3.30;;
11313;SDS011;5712;48.858;9.206;2023-07-29T03:01:18;3.70;;;3.33;;
11313;SDS011;5712;48.858;9.206;2023-07-29T03:03:45;5.17;;;3.50;;
11313;SDS011;5712;48.858;9.206;2023-07-29T03:06:13;4.03;;;3.60;;
11313;SDS011;5712;48.858;9.206;2023-07-29T03:08:40;3.80;;;3.27;;
11313;SDS011;5712;48.858;9.206;2023-07-29T03:11:07;6.00;;;3.73;;
11313;SDS011;5712;48.858;9.206;2023-07-29T03:13:35;4.07;;;3.67;;
11313;SDS011;5712;48.858;9.206;2023-07-29T03:16:05;3.70;;;3.13;;
11313;SDS011;5712;48.858;9.206;2023-07-29T03:18:35;3.73;;;3.27;;
11313;SDS011;5712;48.858;9.206;2023-07-29T03:21:02;3.63;;;3.20;;
11313;SDS011;5712;48.858;9.206;2023-07-29T03:23:31;3.60;;;2.93;;
11313;SDS011;5712;48.858;9.206;2023-07-29T03:25:59;3.40;;;3.10;;
11313;SDS011;5712;48.858;9.206;2023-07-29T03:28:27;3.70;;;3.40;;
11313;SDS011;5712;48.858;9.206;2023-07-29T03:30:55;5.60;;;3.63;;
11313;SDS011;5712;48.858;9.206;2023-07-29T03:33:22;3.90;;;3.20;;
11313;SDS011;5712;48.858;9.206;2023-07-29T03:35:49;4.80;;;3.73;;
11313;SDS011;5712;48.858;9.206;2023-07-29T03:38:15;4.20;;;3.60;;
11313;SDS011;5712;48.858;9.206;2023-07-29T03:40:43;4.47;;;3.87;;
11313;SDS011;5712;48.858;9.206;2023-07-29T03:43:10;4.73;;;4.13;;
11313;SDS011;5712;48.858;9.206;2023-07-29T03:45:36;5.53;;;3.70;;
11313;SDS011;5712;48.858;9.206;2023-07-29T03:48:04;4.50;;;4.00;;
11313;SDS011;5712;48.858;9.206;2023-07-29T03:50:32;4.27;;;3.80;;
11313;SDS011;5712;48.858;9.206;2023-07-29T03:52:59;5.37;;;3.90;;
11313;SDS011;5712;48.858;9.206;2023-07-29T03:55:26;4.47;;;3.77;;
11313;SDS011;5712;48.858;9.206;2023-07-29T03:57:56;4.40;;;3.67;;
11313;SDS011;5712;48.858;9.206;2023-07-29T04:00:22;5.33;;;4.10;;
11313;SDS011;5712;48.858;9.206;2023-07-29T04:02:49;4.90;;;4.30;;
11313;SDS011;5712;48.858;9.206;2023-07-29T04:05:15;4.83;;;4.33;;
11313;SDS011;5712;48.858;9.206;2023-07-29T04:07:42;4.17;;;3.67;;
11313;SDS011;5712;48.858;9.206;2023-07-29T04:10:09;5.60;;;3.07;;
11313;SDS011;5712;48.858;9.206;2023-07-29T04:12:36;4.33;;;2.97;;
11313;SDS011;5712;48.858;9.206;2023-07-29T04:15:05;5.33;;;3.40;;
11313;SDS011;5712;48.858;9.206;2023-07-29T04:17:32;4.40;;;3.20;;
11313;SDS011;5712;48.858;9.206;2023-07-29T04:19:58;3.67;;;3.03;;
11313;SDS011;5712;48.858;9.206;2023-07-29T04:22:25;4.07;;;3.27;;
11313;SDS011;5712;48.858;9.206;2023-07-29T04:24:51;8.30;;;3.77;;
11313;SDS011;5712;48.858;9.206;2023-07-29T04:27:18;4.90;;;3.77;;
11313;SDS011;5712;48.858;9.206;2023-07-29T04:29:45;6.03;;;3.93;;
11313;SDS011;5712;48.858;9.206;2023-07-29T04:32:13;4.30;;;3.87;;
11313;SDS011;5712;48.858;9.206;2023-07-29T04:34:39;5.27;;;4.20;;
11313;SDS011;5712;48.858;9.206;2023-07-29T04:37:06;4.57;;;4.03;;
11313;SDS011;5712;48.858;9.206;2023-07-29T04:39:32;5.83;;;4.30;;
11313;SDS011;5712;48.858;9.206;2023-07-29T04:41:59;4.00;;;3.40;;
11313;SDS011;5712;48.858;9.206;2023-07-29T04:44:25;4.40;;;3.60;;
11313;SDS011;5712;48.858;9.206;2023-07-29T04:46:52;4.77;;;3.53;;
11313;SDS011;5712;48.858;9.206;2023-07-29T04:49:20;4.93;;;3.63;;
11313;SDS011;5712;48.858;9.206;2023-07-29T04:51:46;5.07;;;3.63;;
11313;SDS011;5712;48.858;9.206;2023-07-29T04:54:13;5.40;;;3.70;;
11313;SDS011;5712;48.858;9.206;2023-07-29T04:56:39;4.70;;;3.60;;
11313;SDS011;5712;48.858;9.206;2023-07-29T04:59:06;5.33;;;3.97;;
11313;SDS011;5712;48.858;9.206;2023-07-29T05:01:33;7.20;;;4.10;;
11313;SDS011;5712;48.858;9.206;2023-07-29T05:04:00;6.10;;;3.90;;
11313;SDS011;5712;48.858;9.206;2023-07-29T05:06:28;4.83;;;3.87;;
11313;SDS011;5712;48.858;9.206;2023-07-29T05:08:56;5.33;;;3.67;;
11313;SDS011;5712;48.858;9.206;2023-07-29T05:11:23;3.73;;;3.37;;
11313;SDS011;5712;48.858;9.206;2023-07-29T05:13:50;4.27;;;3.87;;
11313;SDS011;5712;48.858;9.206;2023-07-29T05:16:17;5.43;;;4.03;;
11313;SDS011;5712;48.858;9.206;2023-07-29T05:18:43;7.37;;;4.30;;
11313;SDS011;5712;48.858;9.206;2023-07-29T05:21:10;6.13;;;4.33;;
11313;SDS011;5712;48.858;9.206;2023-07-29T05:23:40;5.60;;;4.07;;
11313;SDS011;5712;48.858;9.206;2023-07-29T05:26:07;4.20;;;3.80;;
11313;SDS011;5712;48.858;9.206;2023-07-29T05:28:33;5.50;;;4.67;;
11313;SDS011;5712;48.858;9.206;2023-07-29T05:31:00;5.20;;;4.70;;
11313;SDS011;5712;48.858;9.206;2023-07-29T05:33:27;4.87;;;4.20;;
11313;SDS011;5712;48.858;9.206;2023-07-29T05:35:53;6.13;;;4.37;;
11313;SDS011;5712;48.858;9.206;2023-07-29T05:38:20;5.23;;;4.20;;
11313;SDS011;5712;48.858;9.206;2023-07-29T05:40:49;5.33;;;4.00;;
11313;SDS011;5712;48.858;9.206;2023-07-29T05:43:16;5.60;;;4.20;;
11313;SDS011;5712;48.858;9.206;2023-07-29T05:45:42;4.83;;;3.93;;
11313;SDS011;5712;48.858;9.206;2023-07-29T05:48:08;5.97;;;4.10;;
11313;SDS011;5712;48.858;9.206;2023-07-29T05:50:35;4.33;;;3.83;;
11313;SDS011;5712;48.858;9.206;2023-07-29T05:53:01;6.43;;;4.03;;
11313;SDS011;5712;48.858;9.206;2023-07-29T05:55:28;4.47;;;4.07;;
11313;SDS011;5712;48.858;9.206;2023-07-29T05:57:56;5.23;;;4.13;;
11313;SDS011;5712;48.858;9.206;2023-07-29T06:00:22;4.00;;;3.60;;
11313;SDS011;5712;48.858;9.206;2023-07-29T06:02:49;5.77;;;3.97;;
11313;SDS011;5712;48.858;9.206;2023-07-29T06:05:15;3.93;;;3.53;;
11313;SDS011;5712;48.858;9.206;2023-07-29T06:07:42;5.47;;;3.27;;
11313;SDS011;5712;48.858;9.206;2023-07-29T06:10:09;4.10;;;3.37;;
11313;SDS011;5712;48.858;9.206;2023-07-29T06:12:37;6.20;;;3.70;;
11313;SDS011;5712;48.858;9.206;2023-07-29T06:15:06;5.60;;;3.80;;
11313;SDS011;5712;48.858;9.206;2023-07-29T06:17:33;6.13;;;3.20;;
11313;SDS011;5712;48.858;9.206;2023-07-29T06:19:59;3.33;;;2.93;;
11313;SDS011;5712;48.858;9.206;2023-07-29T06:22:26;3.47;;;2.77;;
11313;SDS011;5712;48.858;9.206;2023-07-29T06:24:52;2.57;;;2.33;;
11313;SDS011;5712;48.858;9.206;2023-07-29T06:27:19;3.00;;;2.70;;
11313;SDS011;5712;48.858;9.206;2023-07-29T06:29:45;3.70;;;2.77;;
11313;SDS011;5712;48.858;9.206;2023-07-29T06:32:16;3.73;;;2.60;;
11313;SDS011;5712;48.858;9.206;2023-07-29T06:34:42;3.43;;;2.80;;
11313;SDS011;5712;48.858;9.206;2023-07-29T06:37:09;3.53;;;2.97;;
11313;SDS011;5712;48.858;9.206;2023-07-29T06:39:35;3.87;;;2.90;;
11313;SDS011;5712;48.858;9.206;2023-07-29T06:42:02;4.67;;;3.13;;
11313;SDS011;5712;48.858;9.206;2023-07-29T06:44:29;6.73;;;3.70;;
11313;SDS011;5712;48.858;9.206;2023-07-29T06:46:57;4.17;;;2.90;;
11313;SDS011;5712;48.858;9.206;2023-07-29T06:49:25;4.83;;;3.00;;
11313;SDS011;5712;48.858;9.206;2023-07-29T06:51:51;4.10;;;3.70;;
11313;SDS011;5712;48.858;9.206;2023-07-29T06:54:23;3.47;;;3.00;;
11313;SDS011;5712;48.858;9.206;2023-07-29T06:56:50;3.23;;;2.93;;
11313;SDS011;5712;48.858;9.206;2023-07-29T06:59:16;4.30;;;3.07;;
11313;SDS011;5712;48.858;9.206;2023-07-29T07:01:43;4.37;;;3.13;;
11313;SDS011;5712;48.858;9.206;2023-07-29T07:04:10;3.80;;;3.37;;
11313;SDS011;5712;48.858;9.206;2023-07-29T07:06:38;3.90;;;3.50;;
11313;SDS011;5712;48.858;9.206;2023-07-29T07:09:04;4.27;;;3.30;;
11313;SDS011;5712;48.858;9.206;2023-07-29T07:11:31;5.13;;;3.30;;
11313;SDS011;5712;48.858;9.206;2023-07-29T07:13:57;4.20;;;3.80;;
11313;SDS011;5712;48.858;9.206;2023-07-29T07:16:23;4.40;;;3.30;;
11313;SDS011;5712;48.858;9.206;2023-07-29T07:18:50;3.57;;;3.10;;
11313;SDS011;5712;48.858;9.206;2023-07-29T07:21:17;3.60;;;3.07;;
11313;SDS011;5712;48.858;9.206;2023-07-29T07:23:45;3.63;;;2.90;;
11313;SDS011;5712;48.858;9.206;2023-07-29T07:26:11;6.50;;;3.33;;
11313;SDS011;5712;48.858;9.206;2023-07-29T07:28:38;4.87;;;3.50;;
11313;SDS011;5712;48.858;9.206;2023-07-29T07:31:04;2.97;;;2.77;;
11313;SDS011;5712;48.858;9.206;2023-07-29T07:33:31;4.25;;;3.08;;
11313;SDS011;5712;48.858;9.206;2023-07-29T07:35:57;4.03;;;3.00;;
11313;SDS011;5712;48.858;9.206;2023-07-29T07:38:24;3.77;;;2.80;;
11313;SDS011;5712;48.858;9.206;2023-07-29T07:40:55;3.40;;;3.00;;
11313;SDS011;5712;48.858;9.206;2023-07-29T07:43:22;3.00;;;2.70;;
11313;SDS011;5712;48.858;9.206;2023-07-29T07:45:49;3.20;;;2.77;;
11313;SDS011;5712;48.858;9.206;2023-07-29T07:48:15;3.30;;;2.70;;
11313;SDS011;5712;48.858;9.206;2023-07-29T07:50:42;4.40;;;3.07;;
11313;SDS011;5712;48.858;9.206;2023-07-29T07:53:09;2.80;;;2.60;;
11313;SDS011;5712;48.858;9.206;2023-07-29T07:55:35;3.83;;;2.43;;
11313;SDS011;5712;48.858;9.206;2023-07-29T07:58:03;2.73;;;2.43;;
11313;SDS011;5712;48.858;9.206;2023-07-29T08:00:30;2.70;;;2.20;;
11313;SDS011;5712;48.858;9.206;2023-07-29T08:02:56;3.50;;;2.37;;
11313;SDS011;5712;48.858;9.206;2023-07-29T08:05:23;3.83;;;2.20;;
11313;SDS011;5712;48.858;9.206;2023-07-29T08:07:50;2.37;;;2.07;;
11313;SDS011;5712;48.858;9.206;2023-07-29T08:10:16;5.43;;;2.23;;
11313;SDS011;5712;48.858;9.206;2023-07-29T08:12:43;2.10;;;1.90;;
11313;SDS011;5712;48.858;9.206;2023-07-29T08:15:11;2.87;;;2.20;;
11313;SDS011;5712;48.858;9.206;2023-07-29T08:17:37;2.23;;;2.03;;
11313;SDS011;5712;48.858;9.206;2023-07-29T08:20:04;2.03;;;1.63;;
11313;SDS011;5712;48.858;9.206;2023-07-29T08:22:31;2.07;;;1.87;;
11313;SDS011;5712;48.858;9.206;2023-07-29T08:24:58;2.30;;;1.80;;
11313;SDS011;5712;48.858;9.206;2023-07-29T08:27:24;2.10;;;1.37;;
11313;SDS011;5712;48.858;9.206;2023-07-29T08:29:51;1.53;;;1.23;;
11313;SDS011;5712;48.858;9.206;2023-07-29T08:32:20;2.73;;;1.50;;
11313;SDS011;5712;48.858;9.206;2023-07-29T08:34:47;1.50;;;1.40;;
11313;SDS011;5712;48.858;9.206;2023-07-29T08:37:13;1.80;;;1.13;;
11313;SDS011;5712;48.858;9.206;2023-07-29T08:39:40;1.40;;;1.30;;
11313;SDS011;5712;48.858;9.206;2023-07-29T08:42:07;2.47;;;1.33;;
11313;SDS011;5712;48.858;9.206;2023-07-29T08:44:39;1.30;;;1.20;;
11313;SDS011;5712;48.858;9.206;2023-07-29T08:47:07;1.37;;;1.10;;
11313;SDS011;5712;48.858;9.206;2023-07-29T08:49:35;1.77;;;1.30;;
11313;SDS011;5712;48.858;9.206;2023-07-29T08:52:02;1.80;;;1.20;;
11313;SDS011;5712;48.858;9.206;2023-07-29T08:54:31;1.83;;;1.40;;
11313;SDS011;5712;48.858;9.206;2023-07-29T08:56:57;1.10;;;1.00;;
11313;SDS011;5712;48.858;9.206;2023-07-29T08:59:25;3.47;;;1.30;;
11313;SDS011;5712;48.858;9.206;2023-07-29T09:01:52;1.40;;;1.30;;
11313;SDS011;5712;48.858;9.206;2023-07-29T09:04:20;1.33;;;1.00;;
11313;SDS011;5712;48.858;9.206;2023-07-29T09:06:49;1.93;;;1.10;;
11313;SDS011;5712;48.858;9.206;2023-07-29T09:09:17;1.70;;;1.00;;
11313;SDS011;5712;48.858;9.206;2023-07-29T09:11:43;1.63;;;1.03;;
11313;SDS011;5712;48.858;9.206;2023-07-29T09:14:10;1.73;;;1.10;;
11313;SDS011;5712;48.858;9.206;2023-07-29T09:16:37;1.43;;;1.00;;
11313;SDS011;5712;48.858;9.206;2023-07-29T09:19:04;1.43;;;1.30;;
11313;SDS011;5712;48.858;9.206;2023-07-29T09:21:31;2.10;;;1.10;;
11313;SDS011;5712;48.858;9.206;2023-07-29T09:24:01;1.77;;;1.20;;
11313;SDS011;5712;48.858;9.206;2023-07-29T09:26:29;2.00;;;1.30;;
11313;SDS011;5712;48.858;9.206;2023-07-29T09:28:57;1.00;;;0.83;;
11313;SDS011;5712;48.858;9.206;2023-07-29T09:31:24;1.20;;;1.07;;
11313;SDS011;5712;48.858;9.206;2023-07-29T09:33:55;1.83;;;1.23;;
11313;SDS011;5712;48.858;9.206;2023-07-29T09:36:22;1.33;;;1.17;;
11313;SDS011;5712;48.858;9.206;2023-07-29T09:38:51;2.13;;;1.00;;
11313;SDS011;5712;48.858;9.206;2023-07-29T09:41:20;1.30;;;1.20;;
11313;SDS011;5712;48.858;9.206;2023-07-29T09:43:51;1.10;;;1.00;;
11313;SDS011;5712;48.858;9.206;2023-07-29T09:46:22;1.00;;;1.00;;
11313;SDS011;5712;48.858;9.206;2023-07-29T09:48:49;1.27;;;1.10;;
11313;SDS011;5712;48.858;9.206;2023-07-29T09:51:20;1.10;;;1.00;;
11313;SDS011;5712;48.858;9.206;2023-07-29T09:53:48;1.27;;;1.17;;
11313;SDS011;5712;48.858;9.206;2023-07-29T09:56:15;1.13;;;0.97;;
11313;SDS011;5712;48.858;9.206;2023-07-29T09:58:44;1.40;;;1.13;;
11313;SDS011;5712;48.858;9.206;2023-07-29T10:01:11;1.30;;;1.20;;
11313;SDS011;5712;48.858;9.206;2023-07-29T10:03:38;2.37;;;1.43;;
11313;SDS011;5712;48.858;9.206;2023-07-29T10:06:06;1.83;;;1.20;;
11313;SDS011;5712;48.858;9.206;2023-07-29T10:08:33;1.43;;;1.33;;
11313;SDS011;5712;48.858;9.206;2023-07-29T10:11:03;1.63;;;1.53;;
11313;SDS011;5712;48.858;9.206;2023-07-29T10:13:31;2.03;;;1.40;;
11313;SDS011;5712;48.858;9.206;2023-07-29T10:16:00;1.43;;;1.00;;
11313;SDS011;5712;48.858;9.206;2023-07-29T10:18:28;1.60;;;1.40;;
11313;SDS011;5712;48.858;9.206;2023-07-29T10:20:56;1.73;;;1.20;;
11313;SDS011;5712;48.858;9.206;2023-07-29T10:23:24;0.93;;;0.90;;
11313;SDS011;5712;48.858;9.206;2023-07-29T10:25:55;1.10;;;1.00;;
11313;SDS011;5712;48.858;9.206;2023-07-29T10:28:27;1.50;;;0.87;;
11313;SDS011;5712;48.858;9.206;2023-07-29T10:30:56;2.43;;;1.00;;
11313;SDS011;5712;48.858;9.206;2023-07-29T10:33:24;1.20;;;1.00;;
11313;SDS011;5712;48.858;9.206;2023-07-29T10:35:52;0.90;;;0.90;;
11313;SDS011;5712;48.858;9.206;2023-07-29T10:38:18;1.70;;;1.40;;
11313;SDS011;5712;48.858;9.206;2023-07-29T10:40:47;1.47;;;1.37;;
11313;SDS011;5712;48.858;9.206;2023-07-29T10:43:18;0.90;;;0.90;;
11313;SDS011;5712;48.858;9.206;2023-07-29T10:45:49;1.30;;;1.20;;
11313;SDS011;5712;48.858;9.206;2023-07-29T10:51:25;1.60;;;1.40;;
11313;SDS011;5712;48.858;9.206;2023-07-29T10:53:54;2.80;;;1.20;;
11313;SDS011;5712;48.858;9.206;2023-07-29T10:56:26;1.63;;;1.00;;
11313;SDS011;5712;48.858;9.206;2023-07-29T10:58:55;1.60;;;1.40;;
11313;SDS011;5712;48.858;9.206;2023-07-29T11:01:28;1.77;;;1.10;;
11313;SDS011;5712;48.858;9.206;2023-07-29T11:07:03;0.90;;;0.90;;
11313;SDS011;5712;48.858;9.206;2023-07-29T11:09:51;1.30;;;1.00;;
11313;SDS011;5712;48.858;9.206;2023-07-29T11:12:33;1.13;;;1.00;;
11313;SDS011;5712;48.858;9.206;2023-07-29T11:15:02;0.90;;;0.90;;
11313;SDS011;5712;48.858;9.206;2023-07-29T11:17:30;1.63;;;1.17;;
11313;SDS011;5712;48.858;9.206;2023-07-29T11:19:59;1.23;;;1.13;;
11313;SDS011;5712;48.858;9.206;2023-07-29T11:22:28;1.20;;;1.10;;
11313;SDS011;5712;48.858;9.206;2023-07-29T11:24:55;1.03;;;1.00;;
11313;SDS011;5712;48.858;9.206;2023-07-29T11:27:21;0.90;;;0.90;;
11313;SDS011;5712;48.858;9.206;2023-07-29T11:29:48;1.33;;;0.90;;
11313;SDS011;5712;48.858;9.206;2023-07-29T11:32:15;1.17;;;1.00;;
11313;SDS011;5712;48.858;9.206;2023-07-29T11:34:42;1.57;;;0.90;;
11313;SDS011;5712;48.858;9.206;2023-07-29T11:37:10;1.00;;;0.87;;
11313;SDS011;5712;48.858;9.206;2023-07-29T11:39:40;1.00;;;1.00;;
11313;SDS011;5712;48.858;9.206;2023-07-29T11:42:10;0.90;;;0.90;;
11313;SDS011;5712;48.858;9.206;2023-07-29T11:44:37;0.90;;;0.90;;
11313;SDS011;5712;48.858;9.206;2023-07-29T11:47:05;1.30;;;1.20;;
11313;SDS011;5712;48.858;9.206;2023-07-29T11:49:32;1.70;;;1.00;;
11313;SDS011;5712;48.858;9.206;2023-07-29T11:51:59;1.73;;;0.90;;
11313;SDS011;5712;48.858;9.206;2023-07-29T11:54:26;1.00;;;0.90;;
11313;SDS011;5712;48.858;9.206;2023-07-29T11:56:54;1.43;;;0.70;;
11313;SDS011;5712;48.858;9.206;2023-07-29T11:59:21;0.90;;;0.90;;
11313;SDS011;5712;48.858;9.206;2023-07-29T12:01:48;0.80;;;0.80;;
11313;SDS011;5712;48.858;9.206;2023-07-29T12:04:14;1.10;;;1.00;;
11313;SDS011;5712;48.858;9.206;2023-07-29T12:06:42;1.13;;;1.03;;
11313;SDS011;5712;48.858;9.206;2023-07-29T12:09:09;3.37;;;1.20;;
11313;SDS011;5712;48.858;9.206;2023-07-29T12:11:36;2.17;;;1.27;;
11313;SDS011;5712;48.858;9.206;2023-07-29T12:14:03;1.37;;;1.20;;
11313;SDS011;5712;48.858;9.206;2023-07-29T12:16:39;0.80;;;0.80;;
11313;SDS011;5712;48.858;9.206;2023-07-29T12:19:06;1.30;;;1.20;;
11313;SDS011;5712;48.858;9.206;2023-07-29T12:21:33;1.23;;;1.13;;
11313;SDS011;5712;48.858;9.206;2023-07-29T12:24:02;2.23;;;1.07;;
11313;SDS011;5712;48.858;9.206;2023-07-29T12:26:29;2.63;;;1.27;;
11313;SDS011;5712;48.858;9.206;2023-07-29T12:28:55;1.70;;;1.43;;
11313;SDS011;5712;48.858;9.206;2023-07-29T12:31:28;1.27;;;1.13;;
11313;SDS011;5712;48.858;9.206;2023-07-29T12:33:57;1.17;;;1.07;;
11313;SDS011;5712;48.858;9.206;2023-07-29T12:36:27;1.30;;;1.20;;
11313;SDS011;5712;48.858;9.206;2023-07-29T12:38:53;1.67;;;1.53;;
11313;SDS011;5712;48.858;9.206;2023-07-29T12:41:25;2.57;;;1.40;;
11313;SDS011;5712;48.858;9.206;2023-07-29T12:43:51;1.30;;;1.20;;
11313;SDS011;5712;48.858;9.206;2023-07-29T12:46:18;1.40;;;1.30;;
11313;SDS011;5712;48.858;9.206;2023-07-29T12:48:46;1.57;;;1.20;;
11313;SDS011;5712;48.858;9.206;2023-07-29T12:51:12;1.80;;;1.47;;
11313;SDS011;5712;48.858;9.206;2023-07-29T12:53:39;1.57;;;1.43;;
11313;SDS011;5712;48.858;9.206;2023-07-29T12:56:05;1.50;;;1.40;;
11313;SDS011;5712;48.858;9.206;2023-07-29T12:58:32;1.53;;;1.43;;
11313;SDS011;5712;48.858;9.206;2023-07-29T13:00:58;1.40;;;1.30;;
11313;SDS011;5712;48.858;9.206;2023-07-29T13:03:25;1.30;;;1.10;;
11313;SDS011;5712;48.858;9.206;2023-07-29T13:05:54;2.00;;;1.50;;
11313;SDS011;5712;48.858;9.206;2023-07-29T13:08:20;2.07;;;1.47;;
11313;SDS011;5712;48.858;9.206;2023-07-29T13:10:48;2.57;;;1.33;;
11313;SDS011;5712;48.858;9.206;2023-07-29T13:13:14;1.80;;;1.20;;
11313;SDS011;5712;48.858;9.206;2023-07-29T13:15:41;1.47;;;1.33;;
11313;SDS011;5712;48.858;9.206;2023-07-29T13:18:07;1.40;;;1.30;;
11313;SDS011;5712;48.858;9.206;2023-07-29T13:20:34;1.77;;;1.40;;
11313;SDS011;5712;48.858;9.206;2023-07-29T13:23:03;1.70;;;1.40;;
11313;SDS011;5712;48.858;9.206;2023-07-29T13:25:30;2.33;;;1.50;;
11313;SDS011;5712;48.858;9.206;2023-07-29T13:27:57;1.53;;;1.40;;
11313;SDS011;5712;48.858;9.206;2023-07-29T13:30:23;1.93;;;1.20;;
11313;SDS011;5712;48.858;9.206;2023-07-29T13:32:50;1.63;;;1.53;;
11313;SDS011;5712;48.858;9.206;2023-07-29T13:35:16;1.40;;;1.30;;
11313;SDS011;5712;48.858;9.206;2023-07-29T13:37:43;1.77;;;1.30;;
11313;SDS011;5712;48.858;9.206;2023-07-29T13:40:11;2.53;;;1.10;;
11313;SDS011;5712;48.858;9.206;2023-07-29T13:42:37;1.57;;;1.43;;
11313;SDS011;5712;48.858;9.206;2023-07-29T13:45:04;1.40;;;1.30;;
11313;SDS011;5712;48.858;9.206;2023-07-29T13:47:31;2.17;;;1.30;;
11313;SDS011;5712;48.858;9.206;2023-07-29T13:49:57;1.60;;;1.30;;
11313;SDS011;5712;48.858;9.206;2023-07-29T13:52:25;1.70;;;1.57;;
11313;SDS011;5712;48.858;9.206;2023-07-29T13:54:51;1.40;;;1.30;;
11313;SDS011;5712;48.858;9.206;2023-07-29T13:57:19;1.73;;;1.47;;
11313;SDS011;5712;48.858;9.206;2023-07-29T13:59:45;1.50;;;1.40;;
11313;SDS011;5712;48.858;9.206;2023-07-29T14:02:12;1.33;;;1.23;;
11313;SDS011;5712;48.858;9.206;2023-07-29T14:04:39;1.70;;;1.40;;
11313;SDS011;5712;48.858;9.206;2023-07-29T14:07:06;1.43;;;1.30;;
11313;SDS011;5712;48.858;9.206;2023-07-29T14:09:32;1.53;;;1.43;;
11313;SDS011;5712;48.858;9.206;2023-07-29T14:11:59;2.07;;;1.57;;
11313;SDS011;5712;48.858;9.206;2023-07-29T14:14:26;2.10;;;1.50;;
11313;SDS011;5712;48.858;9.206;2023-07-29T14:16:53;1.83;;;1.47;;
11313;SDS011;5712;48.858;9.206;2023-07-29T14:19:19;1.30;;;1.20;;
11313;SDS011;5712;48.858;9.206;2023-07-29T14:21:46;1.57;;;1.37;;
11313;SDS011;5712;48.858;9.206;2023-07-29T14:24:12;1.73;;;1.40;;
11313;SDS011;5712;48.858;9.206;2023-07-29T14:26:40;2.60;;;1.60;;
11313;SDS011;5712;48.858;9.206;2023-07-29T14:29:06;1.60;;;1.50;;
11313;SDS011;5712;48.858;9.206;2023-07-29T14:31:34;1.40;;;1.30;;
11313;SDS011;5712;48.858;9.206;2023-07-29T14:34:01;1.77;;;1.40;;
11313;SDS011;5712;48.858;9.206;2023-07-29T14:36:27;1.30;;;1.20;;
11313;SDS011;5712;48.858;9.206;2023-07-29T14:38:54;1.43;;;1.33;;
11313;SDS011;5712;48.858;9.206;2023-07-29T14:41:20;1.77;;;1.40;;
11313;SDS011;5712;48.858;9.206;2023-07-29T14:43:47;1.83;;;1.30;;
11313;SDS011;5712;48.858;9.206;2023-07-29T14:46:16;1.40;;;1.30;;
11313;SDS011;5712;48.858;9.206;2023-07-29T14:48:43;1.57;;;1.40;;
11313;SDS011;5712;48.858;9.206;2023-07-29T14:51:10;2.97;;;1.70;;
11313;SDS011;5712;48.858;9.206;2023-07-29T14:53:36;1.40;;;1.30;;
11313;SDS011;5712;48.858;9.206;2023-07-29T14:56:03;1.93;;;1.37;;
11313;SDS011;5712;48.858;9.206;2023-07-29T14:58:30;1.73;;;1.47;;
11313;SDS011;5712;48.858;9.206;2023-07-29T15:00:56;1.60;;;1.50;;
11313;SDS011;5712;48.858;9.206;2023-07-29T15:03:23;2.00;;;1.30;;
11313;SDS011;5712;48.858;9.206;2023-07-29T15:05:51;1.77;;;1.50;;
11313;SDS011;5712;48.858;9.206;2023-07-29T15:08:17;1.40;;;1.30;;